Morgan, Utah
Current Conditions -  °F | °C
As of 9:58 PM on Saturday 25 Oct 2014 (Local Time) from KHIF Reporting Station
Few Clouds Few Clouds  
Wind Chill: 67°   Ceiling: Unl
Heat Index: 67°   Visibility: 10mi
Dew Point: 40°   Wind: 16mph
Humidity: 37%   Direction: 180°S
Pressure: 29.91"   Gusts: NA
Location:  41.04°N, 111.68°W
Report Text: KHIF 260358Z AUTO 18014KT 10SM FEW210 19/04 A2991 RMK AO2 SLP081 T01940042
Loading
Personal Weather Stations






























Interactive Weather Map
Tropical Storm Tracking
New forecast layout! Learn more

10-Day Weather Forecast

Advertisements
Track Severe Weather on mobile